createdAt,value
2023-04-24T00:10:39.798Z,95687.78
2023-04-24T00:40:45.906Z,95656.25
2023-04-24T00:43:21.956Z,95669.59
2023-04-24T00:45:57.930Z,95681.88
2023-04-24T00:48:25.653Z,95666.31
2023-04-24T00:50:53.485Z,95663.31
2023-04-24T00:58:48.787Z,95652.66
2023-04-24T01:01:20.644Z,95665.16
2023-04-24T01:06:34.273Z,95656.47
2023-04-24T01:09:02.224Z,95669.81
2023-04-24T01:11:29.376Z,95653.81
2023-04-24T01:16:40.535Z,95649.34
2023-04-24T01:19:16.635Z,95636.56
2023-04-24T01:21:47.416Z,95660.19
2023-04-24T01:24:24.507Z,95641.22
2023-04-24T01:26:55.299Z,95640.59
2023-04-24T01:29:24.388Z,95637.16
2023-04-24T01:31:52.168Z,95640.22
2023-04-24T01:37:11.279Z,95651.28
2023-04-24T01:39:40.665Z,95635.97
2023-04-24T01:42:08.813Z,95643.22
2023-04-24T01:44:37.300Z,95656.53
2023-04-24T01:47:15.629Z,95640.00
2023-04-24T01:49:45.397Z,95637.59
2023-04-24T01:52:12.457Z,95627.50
2023-04-24T01:54:39.200Z,95634.81
2023-04-24T01:57:06.541Z,95635.25
2023-04-24T01:59:35.184Z,95638.13
2023-04-24T02:02:01.985Z,95630.84
2023-04-24T02:04:28.767Z,95629.63
2023-04-24T02:06:55.695Z,95646.41
2023-04-24T02:09:22.400Z,95656.28
2023-04-24T02:11:49.173Z,95625.41
2023-04-24T02:14:15.998Z,95641.38
2023-04-24T02:16:43.630Z,95630.25
2023-04-24T02:19:10.769Z,95630.44
2023-04-24T02:21:37.535Z,95647.00
2023-04-24T02:24:04.295Z,95665.00
2023-04-24T02:26:32.850Z,95663.38
2023-04-24T02:28:59.525Z,95661.78
2023-04-24T02:31:26.250Z,95665.22
2023-04-24T02:33:52.876Z,95672.09
2023-04-24T02:36:19.524Z,95677.53
2023-04-24T02:38:46.496Z,95671.09
2023-04-24T02:41:13.165Z,95659.56
2023-04-24T02:43:39.790Z,95658.97
2023-04-24T02:46:06.409Z,95670.06
2023-04-24T02:48:33.119Z,95662.00
2023-04-24T02:50:59.875Z,95672.88
2023-04-24T02:53:26.658Z,95657.31
2023-04-24T02:55:53.427Z,95674.66
2023-04-24T02:58:21.121Z,95666.41
2023-04-24T03:00:48.359Z,95661.31
2023-04-24T03:03:16.387Z,95663.78
2023-04-24T03:05:43.283Z,95660.91
2023-04-24T03:08:09.912Z,95658.69
2023-04-24T03:10:36.532Z,95681.72
2023-04-24T03:13:03.203Z,95683.94
2023-04-24T03:15:32.152Z,95666.97
2023-04-24T03:17:58.930Z,95688.53
2023-04-24T03:20:25.712Z,95675.63
2023-04-24T03:22:52.337Z,95687.31
2023-04-24T03:25:19.172Z,95685.72
2023-04-24T03:27:48.888Z,95703.06
2023-04-24T03:30:15.581Z,95710.78
2023-04-24T03:32:42.229Z,95707.75
2023-04-24T03:35:09.671Z,95699.44
2023-04-24T03:37:36.331Z,95699.63
2023-04-24T03:40:03.725Z,95711.09
2023-04-24T03:42:30.541Z,95720.72
2023-04-24T03:44:57.125Z,95721.50
2023-04-24T03:47:23.801Z,95719.81
2023-04-24T03:49:50.392Z,95708.09
2023-04-24T03:52:17.008Z,95715.69
2023-04-24T03:54:43.617Z,95720.19
2023-04-24T03:57:10.290Z,95720.41
2023-04-24T03:59:36.866Z,95730.28
2023-04-24T04:02:03.559Z,95727.66
2023-04-24T04:04:30.303Z,95734.03
2023-04-24T04:06:57.147Z,95725.53
2023-04-24T04:09:23.684Z,95732.00
2023-04-24T04:11:50.367Z,95720.31
2023-04-24T04:14:16.908Z,95730.41
2023-04-24T04:16:44.162Z,95716.09
2023-04-24T04:19:11.342Z,95729.59
2023-04-24T04:21:37.923Z,95722.75
2023-04-24T04:24:06.588Z,95735.66
2023-04-24T04:26:33.792Z,95722.75
2023-04-24T04:29:01.781Z,95733.03
2023-04-24T04:31:28.452Z,95732.06
2023-04-24T04:33:55.121Z,95731.63
2023-04-24T04:36:21.805Z,95747.56
2023-04-24T04:38:48.480Z,95741.50
2023-04-24T04:41:15.112Z,95747.34
2023-04-24T04:43:41.811Z,95759.41
2023-04-24T04:46:09.608Z,95727.47
2023-04-24T04:48:36.427Z,95742.63
2023-04-24T04:51:03.200Z,95725.03
2023-04-24T04:53:29.924Z,95733.09
2023-04-24T04:55:56.901Z,95736.44
2023-04-24T04:58:23.724Z,95726.13
2023-04-24T05:00:50.583Z,95744.78
2023-04-24T05:03:21.192Z,95734.50
2023-04-24T05:05:48.620Z,95730.69
2023-04-24T05:10:45.306Z,95727.06
2023-04-24T05:13:13.975Z,95745.31
2023-04-24T05:15:41.002Z,95742.06
2023-04-24T05:18:07.949Z,95730.41
2023-04-24T05:20:34.796Z,95732.53
2023-04-24T05:23:01.625Z,95744.53
2023-04-24T05:25:28.682Z,95737.88
2023-04-24T05:27:55.372Z,95744.31
2023-04-24T05:30:22.396Z,95747.41
2023-04-24T05:32:49.370Z,95749.50
2023-04-24T05:35:16.141Z,95749.91
2023-04-24T05:37:42.898Z,95743.78
2023-04-24T05:42:58.933Z,95753.47
2023-04-24T05:45:28.729Z,95765.16
2023-04-24T05:47:58.015Z,95755.09
2023-04-24T05:50:27.695Z,95764.75
2023-04-24T05:53:05.052Z,95757.47
2023-04-24T05:55:33.724Z,95755.09
2023-04-24T05:58:01.179Z,95759.50
2023-04-24T06:00:28.629Z,95772.41
2023-04-24T06:02:57.686Z,95760.50
2023-04-24T06:05:24.629Z,95765.50
2023-04-24T06:07:52.184Z,95768.31
2023-04-24T06:10:19.600Z,95760.22
2023-04-24T06:12:46.532Z,95772.16
2023-04-24T06:15:13.890Z,95770.13
2023-04-24T06:17:40.680Z,95773.16
2023-04-24T06:20:09.066Z,95769.78
2023-04-24T06:22:36.584Z,95757.41
2023-04-24T06:25:03.572Z,95765.38
2023-04-24T06:27:30.495Z,95764.81
2023-04-24T06:29:57.378Z,95763.97
2023-04-24T06:32:25.398Z,95761.47
2023-04-24T06:34:53.753Z,95753.59
2023-04-24T06:37:21.742Z,95760.44
2023-04-24T06:39:48.638Z,95749.91
2023-04-24T06:42:15.616Z,95782.44
2023-04-24T06:44:42.373Z,95764.34
2023-04-24T06:47:10.041Z,95783.50
2023-04-24T06:49:40.886Z,95765.09
2023-04-24T06:52:07.799Z,95757.81
2023-04-24T06:54:34.934Z,95752.63
2023-04-24T06:57:04.820Z,95746.78
2023-04-24T06:59:31.801Z,95764.91
2023-04-24T07:01:58.702Z,95755.16
2023-04-24T07:04:26.516Z,95756.38
2023-04-24T07:06:55.508Z,95751.78
2023-04-24T07:09:23.163Z,95766.53
2023-04-24T07:11:50.016Z,95761.72
2023-04-24T07:14:16.862Z,95765.31
2023-04-24T07:16:43.747Z,95778.66
2023-04-24T07:19:10.924Z,95755.66
2023-04-24T07:21:37.736Z,95760.50
2023-04-24T07:24:04.469Z,95782.78
2023-04-24T07:26:31.559Z,95778.53
2023-04-24T07:28:58.374Z,95778.31
2023-04-24T07:31:25.061Z,95781.97
2023-04-24T07:33:51.699Z,95777.53
2023-04-24T07:36:19.998Z,95794.09
2023-04-24T07:38:47.111Z,95777.84
2023-04-24T07:41:14.832Z,95790.31
2023-04-24T07:43:41.761Z,95792.22
2023-04-24T07:46:09.252Z,95805.91
2023-04-24T07:48:36.074Z,95802.69
2023-04-24T07:51:02.727Z,95813.84
2023-04-24T07:53:29.329Z,95797.84
2023-04-24T07:55:57.179Z,95803.44
2023-04-24T07:58:23.926Z,95778.22
2023-04-24T08:00:50.489Z,95805.28
2023-04-24T08:03:20.046Z,95807.03
2023-04-24T08:05:47.205Z,95810.09
2023-04-24T08:08:14.421Z,95810.06
2023-04-24T08:10:41.015Z,95803.66
2023-04-24T08:13:07.683Z,95796.59
2023-04-24T08:15:34.357Z,95803.38
2023-04-24T08:18:01.060Z,95811.66
2023-04-24T08:20:27.701Z,95800.78
2023-04-24T08:22:55.072Z,95804.72
2023-04-24T08:25:24.013Z,95797.09
2023-04-24T08:27:50.695Z,95805.59
2023-04-24T08:30:17.333Z,95821.19
2023-04-24T08:32:43.961Z,95819.81
2023-04-24T08:35:10.849Z,95837.16
2023-04-24T08:37:37.703Z,95838.25
2023-04-24T08:40:30.067Z,95842.34
2023-04-24T08:42:59.016Z,95853.31
2023-04-24T08:45:25.883Z,95859.13
2023-04-24T08:47:54.440Z,95854.34
2023-04-24T08:50:21.937Z,95854.25
2023-04-24T08:52:51.274Z,95847.31
2023-04-24T08:55:19.260Z,95855.28
2023-04-24T08:57:47.062Z,95855.56
2023-04-24T09:00:14.219Z,95867.09
2023-04-24T09:02:44.344Z,95878.06
2023-04-24T09:05:11.710Z,95876.06
2023-04-24T09:07:40.649Z,95877.69
2023-04-24T09:10:08.249Z,95904.13
2023-04-24T09:12:35.894Z,95886.78
2023-04-24T09:15:04.678Z,95887.22
2023-04-24T09:17:35.434Z,95890.44
2023-04-24T09:20:02.721Z,95910.06
2023-04-24T09:22:32.431Z,95899.81
2023-04-24T09:25:07.766Z,95889.56
2023-04-24T09:27:34.999Z,95896.41
2023-04-24T09:30:02.509Z,95908.16
2023-04-24T09:32:31.106Z,95890.94
2023-04-24T09:35:12.323Z,95898.78
2023-04-24T09:37:49.908Z,95895.88
2023-04-24T09:40:17.810Z,95908.19
2023-04-24T09:42:52.542Z,95906.38
2023-04-24T09:45:19.316Z,95911.34
2023-04-24T09:47:45.984Z,95918.75
2023-04-24T09:50:13.271Z,95929.09
2023-04-24T09:53:07.010Z,95921.44
2023-04-24T09:55:33.822Z,95931.44
2023-04-24T09:58:02.335Z,95938.66
2023-04-24T10:00:30.896Z,95938.19
2023-04-24T10:03:02.008Z,95926.53
2023-04-24T10:05:30.559Z,95926.31
2023-04-24T10:07:58.529Z,95936.97
2023-04-24T10:10:25.231Z,95943.09
2023-04-24T10:12:52.442Z,95954.03
2023-04-24T10:15:22.551Z,95969.34
2023-04-24T10:17:55.178Z,95962.53
2023-04-24T10:20:24.297Z,95966.09
2023-04-24T10:22:52.738Z,95973.13
2023-04-24T10:25:25.247Z,95982.25
2023-04-24T10:27:53.391Z,95993.59
2023-04-24T10:30:21.242Z,95985.56
2023-04-24T10:32:47.862Z,95999.13
2023-04-24T10:35:15.932Z,96008.94
2023-04-24T10:37:49.761Z,96026.94
2023-04-24T10:40:20.576Z,96019.53
2023-04-24T10:42:55.280Z,96026.06
2023-04-24T10:45:24.811Z,96021.94
2023-04-24T10:48:04.306Z,96042.28
2023-04-24T10:50:49.234Z,96030.72
2023-04-24T10:53:27.965Z,96045.47
2023-04-24T10:56:06.748Z,96053.66
2023-04-24T10:58:46.060Z,96057.84
2023-04-24T11:01:28.910Z,96061.16
2023-04-24T11:03:57.770Z,96073.13
2023-04-24T11:06:36.965Z,96053.91
2023-04-24T11:09:08.380Z,96074.34
2023-04-24T11:11:41.107Z,96065.31
2023-04-24T11:14:09.043Z,96071.00
2023-04-24T11:16:40.515Z,96081.47
2023-04-24T11:19:08.591Z,96082.19
2023-04-24T11:21:45.538Z,96089.38
2023-04-24T11:24:39.148Z,96107.41
2023-04-24T11:27:05.685Z,96104.41
2023-04-24T11:29:51.514Z,96105.59
2023-04-24T11:32:29.900Z,96094.91
2023-04-24T11:35:15.204Z,96115.03
2023-04-24T11:37:43.377Z,96105.78
2023-04-24T11:40:12.643Z,96127.00
2023-04-24T11:42:41.373Z,96119.13
2023-04-24T11:45:29.140Z,96133.91
2023-04-24T11:47:55.898Z,96126.75
2023-04-24T11:50:24.164Z,96144.94
2023-04-24T11:52:51.422Z,96149.94
2023-04-24T11:55:17.962Z,96143.94
2023-04-24T11:57:46.091Z,96149.59
2023-04-24T12:00:19.813Z,96165.34
2023-04-24T12:02:46.776Z,96167.84
2023-04-24T12:05:28.112Z,96169.09
2023-04-24T12:07:55.521Z,96173.34
2023-04-24T12:10:23.543Z,96164.66
2023-04-24T12:12:52.391Z,96160.91
2023-04-24T12:15:22.699Z,96162.28
2023-04-24T12:17:52.336Z,96179.50
2023-04-24T12:20:28.028Z,96184.91
2023-04-24T12:22:59.016Z,96184.34
2023-04-24T12:25:30.702Z,96184.75
2023-04-24T12:28:12.093Z,96184.84
2023-04-24T12:30:42.680Z,96201.75
2023-04-24T12:33:09.427Z,96197.97
2023-04-24T12:35:36.856Z,96189.63
2023-04-24T12:38:11.462Z,96206.16
2023-04-24T12:40:38.135Z,96189.47
2023-04-24T12:43:15.379Z,96204.91
2023-04-24T12:45:41.926Z,96201.97
2023-04-24T12:48:08.581Z,96191.50
2023-04-24T12:50:35.299Z,96196.66
2023-04-24T12:53:01.889Z,96212.19
2023-04-24T12:55:28.454Z,96197.97
2023-04-24T12:57:56.426Z,96210.16
2023-04-24T13:00:23.264Z,96217.66
2023-04-24T13:02:50.050Z,96203.69
2023-04-24T13:05:16.895Z,96213.00
2023-04-24T13:07:43.533Z,96207.63
2023-04-24T13:10:10.500Z,96209.63
2023-04-24T13:12:37.524Z,96210.28
2023-04-24T13:15:04.563Z,96213.31
2023-04-24T13:17:31.219Z,96213.22
2023-04-24T13:19:57.842Z,96226.59
2023-04-24T13:22:24.446Z,96213.38
2023-04-24T13:24:51.052Z,96222.09
2023-04-24T13:27:18.427Z,96231.53
2023-04-24T13:29:45.065Z,96238.44
2023-04-24T13:32:12.982Z,96235.75
2023-04-24T13:34:39.753Z,96237.59
2023-04-24T13:37:07.158Z,96218.78
2023-04-24T13:39:33.829Z,96238.25
2023-04-24T13:42:01.977Z,96235.22
2023-04-24T13:44:29.945Z,96243.97
2023-04-24T13:46:57.965Z,96235.25
2023-04-24T13:49:26.345Z,96242.53
2023-04-24T13:51:54.698Z,96241.69
2023-04-24T13:54:21.419Z,96243.34
2023-04-24T13:56:48.070Z,96258.38
2023-04-24T13:59:14.660Z,96253.91
2023-04-24T14:01:41.471Z,96249.94
2023-04-24T14:04:08.324Z,96257.47
2023-04-24T14:06:35.002Z,96248.63
2023-04-24T14:09:01.741Z,96251.00
2023-04-24T14:11:28.564Z,96250.00
2023-04-24T14:13:57.485Z,96239.91
2023-04-24T14:16:24.086Z,96256.78
2023-04-24T14:18:51.287Z,96249.06
2023-04-24T14:21:17.929Z,96247.28
2023-04-24T14:23:45.506Z,96254.69
2023-04-24T14:26:12.368Z,96254.28
2023-04-24T14:28:39.401Z,96252.66
2023-04-24T14:31:06.337Z,96255.16
2023-04-24T14:33:32.970Z,96258.41
2023-04-24T14:35:59.506Z,96234.44
2023-04-24T14:38:26.143Z,96241.16
2023-04-24T14:41:06.389Z,96245.81
2023-04-24T14:43:33.748Z,96247.22
2023-04-24T14:46:00.408Z,96252.72
2023-04-24T14:48:27.003Z,96260.81
2023-04-24T14:50:53.643Z,96253.44
2023-04-24T14:53:20.451Z,96255.44
2023-04-24T14:55:47.019Z,96264.53
2023-04-24T14:58:13.765Z,96252.19
2023-04-24T15:00:40.383Z,96270.97
2023-04-24T15:03:07.710Z,96275.84
2023-04-24T15:05:34.765Z,96281.59
2023-04-24T15:08:01.810Z,96268.13
2023-04-24T15:10:30.264Z,96273.03
2023-04-24T15:12:57.101Z,96283.34
2023-04-24T15:15:23.821Z,96271.78
2023-04-24T15:17:50.568Z,96268.50
2023-04-24T15:20:17.453Z,96273.50
2023-04-24T15:22:44.165Z,96278.22
2023-04-24T15:25:11.545Z,96278.16
2023-04-24T15:27:45.502Z,96280.56
2023-04-24T15:30:12.966Z,96277.91
2023-04-24T15:32:40.033Z,96297.13
2023-04-24T15:35:09.818Z,96300.38
2023-04-24T15:37:38.468Z,96295.50
2023-04-24T15:40:07.782Z,96298.78
2023-04-24T15:42:35.012Z,96286.91
2023-04-24T15:45:04.456Z,96294.94
2023-04-24T15:47:31.354Z,96284.13
2023-04-24T15:49:58.758Z,96280.28
2023-04-24T15:52:25.905Z,96294.47
2023-04-24T15:54:52.732Z,96283.94
2023-04-24T15:57:19.617Z,96297.91
2023-04-24T15:59:46.588Z,96298.41
2023-04-24T16:02:19.520Z,96292.56
2023-04-24T16:04:47.393Z,96297.69
2023-04-24T16:07:15.600Z,96306.44
2023-04-24T16:09:42.743Z,96297.75
2023-04-24T16:12:10.640Z,96294.25
2023-04-24T16:14:38.057Z,96301.78
2023-04-24T16:17:05.165Z,96291.84
2023-04-24T16:19:34.153Z,96300.56
2023-04-24T16:22:01.324Z,96302.78
2023-04-24T16:24:28.566Z,96310.06
2023-04-24T16:26:55.878Z,96315.13
2023-04-24T16:29:22.672Z,96291.09
2023-04-24T16:31:49.434Z,96306.69
2023-04-24T16:34:16.179Z,96313.41
2023-04-24T16:36:43.057Z,96314.97
2023-04-24T16:39:09.992Z,96314.78
2023-04-24T16:41:36.595Z,96333.28
2023-04-24T16:44:03.356Z,96335.31
2023-04-24T16:46:29.993Z,96331.84
2023-04-24T16:48:57.740Z,96319.63
2023-04-24T16:51:24.324Z,96327.03
2023-04-24T16:53:50.996Z,96329.06
2023-04-24T16:56:17.524Z,96323.06
2023-04-24T16:58:44.098Z,96311.88
2023-04-24T17:01:10.684Z,96305.41
2023-04-24T17:03:37.544Z,96321.78
2023-04-24T17:06:04.608Z,96321.47
2023-04-24T17:08:32.895Z,96325.97
2023-04-24T17:10:59.620Z,96329.31
2023-04-24T17:13:26.304Z,96327.47
2023-04-24T17:15:52.886Z,96335.41
2023-04-24T17:18:19.816Z,96330.28
2023-04-24T17:20:46.540Z,96335.56
2023-04-24T17:23:13.771Z,96334.66
2023-04-24T17:25:40.619Z,96322.72
2023-04-24T17:28:21.185Z,96329.94
2023-04-24T17:30:47.742Z,96336.31
2023-04-24T17:33:14.520Z,96319.50
2023-04-24T17:35:41.164Z,96325.59
2023-04-24T17:38:07.796Z,96333.50
2023-04-24T17:40:34.690Z,96333.69
2023-04-24T17:43:01.564Z,96323.00
2023-04-24T17:45:28.193Z,96323.22
2023-04-24T17:47:56.577Z,96324.81
2023-04-24T17:50:23.296Z,96338.28
2023-04-24T17:52:49.952Z,96324.59
2023-04-24T17:55:17.102Z,96326.47
2023-04-24T17:57:43.779Z,96334.09
2023-04-24T18:00:11.345Z,96331.31
2023-04-24T18:02:38.294Z,96342.94
2023-04-24T18:05:05.597Z,96345.84
2023-04-24T18:07:32.196Z,96344.31
2023-04-24T18:09:58.814Z,96338.56
2023-04-24T18:12:25.572Z,96349.69
2023-04-24T18:14:57.308Z,96328.09
2023-04-24T18:17:33.120Z,96354.31
2023-04-24T18:19:59.859Z,96354.94
2023-04-24T18:22:26.823Z,96357.75
2023-04-24T18:24:53.431Z,96354.22
2023-04-24T18:27:20.047Z,96352.16
2023-04-24T18:29:46.629Z,96353.84
2023-04-24T18:32:13.493Z,96351.69
2023-04-24T18:34:40.172Z,96359.91
2023-04-24T18:37:06.764Z,96362.25
2023-04-24T18:39:33.567Z,96358.41
2023-04-24T18:42:01.333Z,96354.59
2023-04-24T18:44:28.079Z,96367.69
2023-04-24T18:46:54.691Z,96360.13
2023-04-24T18:49:21.295Z,96379.00
2023-04-24T18:51:54.003Z,96373.19
2023-04-24T18:54:21.425Z,96376.34
2023-04-24T18:56:48.155Z,96383.16
2023-04-24T18:59:14.733Z,96387.88
2023-04-24T19:01:41.703Z,96392.00
2023-04-24T19:04:08.385Z,96387.66
2023-04-24T19:06:35.128Z,96401.00
2023-04-24T19:09:01.885Z,96390.44
2023-04-24T19:11:28.501Z,96399.91
2023-04-24T19:13:55.421Z,96389.13
2023-04-24T19:16:22.092Z,96403.53
2023-04-24T19:18:49.054Z,96395.72
2023-04-24T19:21:15.903Z,96398.38
2023-04-24T19:23:43.731Z,96418.31
2023-04-24T19:26:11.320Z,96409.72
2023-04-24T19:28:39.042Z,96409.41
2023-04-24T19:31:05.961Z,96410.22
2023-04-24T19:33:32.545Z,96416.44
2023-04-24T19:36:00.049Z,96410.25
2023-04-24T19:38:26.723Z,96425.91
2023-04-24T19:40:53.329Z,96419.06
2023-04-24T19:43:19.998Z,96430.66
2023-04-24T19:45:46.669Z,96421.16
2023-04-24T19:48:13.431Z,96417.25
2023-04-24T19:50:39.992Z,96412.34
2023-04-24T19:53:06.680Z,96423.09
2023-04-24T19:55:33.320Z,96419.88
2023-04-24T19:58:00.057Z,96421.66
2023-04-24T20:00:26.861Z,96411.53
2023-04-24T20:02:53.635Z,96413.84
2023-04-24T20:05:20.703Z,96413.84
2023-04-24T20:07:47.489Z,96417.09
2023-04-24T20:10:14.135Z,96418.38
2023-04-24T20:12:41.211Z,96417.72
2023-04-24T20:15:08.520Z,96403.03
2023-04-24T20:17:35.238Z,96416.25
2023-04-24T20:20:02.350Z,96425.22
2023-04-24T20:22:29.563Z,96404.00
2023-04-24T20:24:56.255Z,96418.50
2023-04-24T20:27:22.882Z,96427.31
2023-04-24T20:29:49.505Z,96423.72
2023-04-24T20:32:16.336Z,96422.25
2023-04-24T20:34:42.861Z,96421.59
2023-04-24T20:37:09.511Z,96416.72
2023-04-24T20:39:36.963Z,96427.69
2023-04-24T20:42:03.924Z,96429.31
2023-04-24T20:44:30.660Z,96431.81
2023-04-24T20:46:57.409Z,96412.88
2023-04-24T20:49:24.100Z,96416.78
2023-04-24T20:51:50.965Z,96423.94
2023-04-24T20:54:17.541Z,96427.22
2023-04-24T20:56:44.107Z,96414.31
2023-04-24T20:59:10.744Z,96425.22
2023-04-24T21:01:37.332Z,96431.09
2023-04-24T21:04:04.212Z,96421.59
2023-04-24T21:06:32.019Z,96426.00
2023-04-24T21:08:58.620Z,96410.16
2023-04-24T21:11:25.288Z,96412.91
2023-04-24T21:13:52.029Z,96411.78
2023-04-24T21:16:18.723Z,96427.09
2023-04-24T21:18:45.491Z,96424.66
2023-04-24T21:21:12.072Z,96425.09
2023-04-24T21:23:39.177Z,96413.81
2023-04-24T21:26:06.753Z,96416.22
2023-04-24T21:28:33.468Z,96409.53
2023-04-24T21:31:00.312Z,96416.53
2023-04-24T21:33:27.097Z,96418.16
2023-04-24T21:35:53.780Z,96414.06
2023-04-24T21:38:23.334Z,96428.25
2023-04-24T21:40:50.809Z,96409.63
2023-04-24T21:43:27.751Z,96427.91
2023-04-24T21:46:00.550Z,96412.88
2023-04-24T21:48:27.254Z,96409.63
2023-04-24T21:50:53.908Z,96404.72
2023-04-24T21:53:20.503Z,96402.94
2023-04-24T21:55:47.141Z,96400.81
2023-04-24T21:58:14.061Z,96411.41
2023-04-24T22:00:40.634Z,96409.44
2023-04-24T22:03:07.450Z,96400.16
2023-04-24T22:05:34.200Z,96407.00
2023-04-24T22:08:01.712Z,96407.97
2023-04-24T22:10:28.513Z,96398.31
2023-04-24T22:12:55.097Z,96392.94
2023-04-24T22:15:21.781Z,96396.97
2023-04-24T22:17:49.785Z,96394.19
2023-04-24T22:20:19.229Z,96391.91
2023-04-24T22:22:46.388Z,96393.06
2023-04-24T22:25:13.006Z,96400.72
2023-04-24T22:27:39.662Z,96389.94
2023-04-24T22:30:07.106Z,96401.19
2023-04-24T22:32:33.862Z,96404.94
2023-04-24T22:35:00.684Z,96407.47
2023-04-24T22:37:27.356Z,96392.66
2023-04-24T22:39:54.041Z,96391.13
2023-04-24T22:42:20.655Z,96393.72
2023-04-24T22:44:47.272Z,96405.28
2023-04-24T22:47:13.867Z,96403.81
2023-04-24T22:49:42.147Z,96395.34
2023-04-24T22:52:08.982Z,96379.00
2023-04-24T22:54:35.958Z,96382.88
2023-04-24T22:57:03.669Z,96382.06
2023-04-24T22:59:30.436Z,96386.09
2023-04-24T23:01:57.324Z,96398.31
2023-04-24T23:04:24.086Z,96392.09
2023-04-24T23:06:50.837Z,96388.19
2023-04-24T23:09:17.469Z,96376.72
2023-04-24T23:11:44.151Z,96388.63
2023-04-24T23:14:10.763Z,96382.91
2023-04-24T23:16:38.001Z,96381.75
2023-04-24T23:19:05.258Z,96388.63
2023-04-24T23:21:33.283Z,96381.56
2023-04-24T23:24:00.037Z,96387.28
2023-04-24T23:26:26.689Z,96390.94
2023-04-24T23:28:53.378Z,96395.25
2023-04-24T23:31:20.312Z,96380.88
2023-04-24T23:33:47.105Z,96388.00
2023-04-24T23:36:15.213Z,96385.66
2023-04-24T23:38:49.523Z,96399.66
2023-04-24T23:41:17.204Z,96394.97
2023-04-24T23:43:43.901Z,96380.41
2023-04-24T23:46:10.617Z,96379.75
2023-04-24T23:48:37.466Z,96380.41
2023-04-24T23:51:04.212Z,96384.00
2023-04-24T23:53:30.789Z,96394.78
2023-04-24T23:55:57.528Z,96375.81
2023-04-24T23:58:24.265Z,96385.56
